createdAt,value
2018-09-20T00:00:22.200Z,4.00
2018-09-20T00:02:48.327Z,4.07
2018-09-20T00:05:14.978Z,4.23
2018-09-20T00:07:41.051Z,4.17
2018-09-20T00:10:07.132Z,3.57
2018-09-20T00:12:33.246Z,3.97
2018-09-20T00:14:59.341Z,4.10
2018-09-20T00:17:25.433Z,4.27
2018-09-20T00:19:51.541Z,4.20
2018-09-20T00:22:17.622Z,3.93
2018-09-20T00:24:43.730Z,4.27
2018-09-20T00:27:09.859Z,4.43
2018-09-20T00:29:35.936Z,3.27
2018-09-20T00:32:02.056Z,4.53
2018-09-20T00:34:28.114Z,4.40
2018-09-20T00:36:54.224Z,4.70
2018-09-20T00:39:20.334Z,4.57
2018-09-20T00:41:46.472Z,5.23
2018-09-20T00:44:12.509Z,4.27
2018-09-20T00:46:38.565Z,4.70
2018-09-20T00:49:04.634Z,4.23
2018-09-20T00:51:30.736Z,4.00
2018-09-20T00:53:56.818Z,4.10
2018-09-20T00:56:22.879Z,4.80
2018-09-20T00:58:48.945Z,4.40
2018-09-20T01:01:15.579Z,4.77
2018-09-20T01:03:41.664Z,4.63
2018-09-20T01:06:07.744Z,4.37
2018-09-20T01:08:33.804Z,4.93
2018-09-20T01:10:59.952Z,3.80
2018-09-20T01:13:26.098Z,3.80
2018-09-20T01:15:52.227Z,4.40
2018-09-20T01:18:18.319Z,4.53
2018-09-20T01:20:44.404Z,4.73
2018-09-20T01:23:10.536Z,5.17
2018-09-20T01:25:36.646Z,4.80
2018-09-20T01:28:02.746Z,5.57
2018-09-20T01:30:29.542Z,5.37
2018-09-20T01:32:55.646Z,4.97
2018-09-20T01:35:21.730Z,5.83
2018-09-20T01:37:47.806Z,5.30
2018-09-20T01:40:13.885Z,4.70
2018-09-20T01:42:39.975Z,4.70
2018-09-20T01:45:06.093Z,5.20
2018-09-20T01:47:32.176Z,4.67
2018-09-20T01:49:58.222Z,5.10
2018-09-20T01:52:24.318Z,4.77
2018-09-20T01:54:50.392Z,4.20
2018-09-20T01:57:16.490Z,4.07
2018-09-20T01:59:42.546Z,4.10
2018-09-20T02:02:08.626Z,4.23
2018-09-20T02:04:35.678Z,3.90
2018-09-20T02:07:01.758Z,4.47
2018-09-20T02:09:27.849Z,4.60
2018-09-20T02:11:53.938Z,5.30
2018-09-20T02:14:20.007Z,5.20
2018-09-20T02:16:46.086Z,4.87
2018-09-20T02:19:12.201Z,4.67
2018-09-20T02:21:38.266Z,5.00
2018-09-20T02:24:04.385Z,5.13
2018-09-20T02:26:30.698Z,5.13
2018-09-20T02:28:56.801Z,5.03
2018-09-20T02:31:22.892Z,4.57
2018-09-20T02:33:48.983Z,4.50
2018-09-20T02:36:15.091Z,5.80
2018-09-20T02:38:41.171Z,5.83
2018-09-20T02:41:07.449Z,5.23
2018-09-20T02:43:33.573Z,5.00
2018-09-20T02:45:59.659Z,5.20
2018-09-20T02:48:25.901Z,5.63
2018-09-20T02:50:52.022Z,5.17
2018-09-20T02:53:18.081Z,4.37
2018-09-20T02:55:44.184Z,5.57
2018-09-20T02:58:10.281Z,5.63
2018-09-20T03:00:36.383Z,5.40
2018-09-20T03:03:02.471Z,5.33
2018-09-20T03:05:28.581Z,4.40
2018-09-20T03:07:54.682Z,5.33
2018-09-20T03:10:20.771Z,5.37
2018-09-20T03:12:46.895Z,5.77
2018-09-20T03:15:12.963Z,5.13
2018-09-20T03:17:39.041Z,5.17
2018-09-20T03:20:05.151Z,5.33
2018-09-20T03:22:31.277Z,5.23
2018-09-20T03:24:57.375Z,5.20
2018-09-20T03:27:23.459Z,5.00
2018-09-20T03:29:49.517Z,5.47
2018-09-20T03:32:15.615Z,5.00
2018-09-20T03:34:41.761Z,5.60
2018-09-20T03:37:07.875Z,5.90
2018-09-20T03:39:33.983Z,5.73
2018-09-20T03:42:00.055Z,5.03
2018-09-20T03:44:26.147Z,5.77
2018-09-20T03:46:52.247Z,6.47
2018-09-20T03:49:18.440Z,4.63
2018-09-20T03:51:44.518Z,5.23
2018-09-20T03:54:11.397Z,6.13
2018-09-20T03:56:37.515Z,5.17
2018-09-20T03:59:03.641Z,5.63
2018-09-20T04:01:29.730Z,5.93
2018-09-20T04:03:55.808Z,5.80
2018-09-20T04:06:21.898Z,5.10
2018-09-20T04:08:47.963Z,5.10
2018-09-20T04:11:14.047Z,5.60
2018-09-20T04:13:40.133Z,5.00
2018-09-20T04:16:06.223Z,4.73
2018-09-20T04:18:33.119Z,8.90
2018-09-20T04:20:59.311Z,11.70
2018-09-20T04:23:25.397Z,10.40
2018-09-20T04:25:51.481Z,8.83
2018-09-20T04:28:17.569Z,8.90
2018-09-20T04:30:43.631Z,7.37
2018-09-20T04:33:09.747Z,7.93
2018-09-20T04:35:35.860Z,7.57
2018-09-20T04:38:01.943Z,7.73
2018-09-20T04:40:28.042Z,7.03
2018-09-20T04:42:54.168Z,7.83
2018-09-20T04:45:20.226Z,7.37
2018-09-20T04:47:46.295Z,7.37
2018-09-20T04:50:12.580Z,7.53
2018-09-20T04:52:38.703Z,6.20
2018-09-20T04:55:05.238Z,6.40
2018-09-20T04:57:31.354Z,6.97
2018-09-20T04:59:57.477Z,5.83
2018-09-20T05:02:23.526Z,5.20
2018-09-20T05:04:49.646Z,5.57
2018-09-20T05:07:15.772Z,5.70
2018-09-20T05:09:41.870Z,5.50
2018-09-20T05:12:07.982Z,5.50
2018-09-20T05:14:34.086Z,5.70
2018-09-20T05:17:00.166Z,4.90
2018-09-20T05:19:26.278Z,5.33
2018-09-20T05:21:52.358Z,4.90
2018-09-20T05:24:18.478Z,4.50
2018-09-20T05:26:44.568Z,4.40
2018-09-20T05:29:10.643Z,4.33
2018-09-20T05:31:36.716Z,4.57
2018-09-20T05:34:02.820Z,3.90
2018-09-20T05:36:28.916Z,3.90
2018-09-20T05:38:54.994Z,3.80
2018-09-20T05:41:21.080Z,4.30
2018-09-20T05:43:47.160Z,4.30
2018-09-20T05:46:13.262Z,4.60
2018-09-20T05:48:39.454Z,4.10
2018-09-20T05:51:05.572Z,4.27
2018-09-20T05:53:31.680Z,4.40
2018-09-20T05:55:57.778Z,4.03
2018-09-20T05:58:23.858Z,3.80
2018-09-20T06:00:49.957Z,4.07
2018-09-20T06:03:16.055Z,3.93
2018-09-20T06:05:42.144Z,3.60
2018-09-20T06:08:08.244Z,3.80
2018-09-20T06:10:34.328Z,4.30
2018-09-20T06:13:00.432Z,4.23
2018-09-20T06:15:26.526Z,3.90
2018-09-20T06:17:52.598Z,4.80
2018-09-20T06:20:18.675Z,4.13
2018-09-20T06:22:44.754Z,4.30
2018-09-20T06:25:11.772Z,4.03
2018-09-20T06:27:37.926Z,4.57
2018-09-20T06:30:04.010Z,4.10
2018-09-20T06:32:30.086Z,4.20
2018-09-20T06:34:56.214Z,4.53
2018-09-20T06:37:22.303Z,3.97
2018-09-20T06:39:48.363Z,3.90
2018-09-20T06:42:14.416Z,3.57
2018-09-20T06:44:40.533Z,3.97
2018-09-20T06:47:06.582Z,4.77
2018-09-20T06:49:32.824Z,4.53
2018-09-20T06:51:59.965Z,3.63
2018-09-20T06:54:26.080Z,3.77
2018-09-20T06:56:52.182Z,3.83
2018-09-20T06:59:18.305Z,3.77
2018-09-20T07:01:45.061Z,4.30
2018-09-20T07:04:11.155Z,3.53
2018-09-20T07:06:37.229Z,3.97
2018-09-20T07:09:06.023Z,4.60
2018-09-20T07:11:32.129Z,3.80
2018-09-20T07:13:58.259Z,3.87
2018-09-20T07:16:24.369Z,3.40
2018-09-20T07:18:50.509Z,4.43
2018-09-20T07:21:16.674Z,4.13
2018-09-20T07:23:42.817Z,4.23
2018-09-20T07:26:08.951Z,4.10
2018-09-20T07:28:35.075Z,3.67
2018-09-20T07:31:01.194Z,3.60
2018-09-20T07:33:27.269Z,3.90
2018-09-20T07:35:53.381Z,4.17
2018-09-20T07:38:19.464Z,4.50
2018-09-20T07:40:45.567Z,4.00
2018-09-20T07:43:11.637Z,3.97
2018-09-20T07:45:37.757Z,4.53
2018-09-20T07:48:03.855Z,4.97
2018-09-20T07:50:29.998Z,3.90
2018-09-20T07:52:56.107Z,4.33
2018-09-20T07:55:22.205Z,4.37
2018-09-20T07:57:48.257Z,3.83
2018-09-20T08:00:14.327Z,4.63
2018-09-20T08:02:40.434Z,3.83
2018-09-20T08:05:06.551Z,4.03
2018-09-20T08:07:32.648Z,4.30
2018-09-20T08:09:58.727Z,4.27
2018-09-20T08:12:24.827Z,4.23
2018-09-20T08:14:50.945Z,4.37
2018-09-20T08:17:17.041Z,4.53
2018-09-20T08:19:43.137Z,4.43
2018-09-20T08:22:13.409Z,5.17
2018-09-20T08:24:40.039Z,4.17
2018-09-20T08:27:09.519Z,4.33
2018-09-20T08:29:35.647Z,4.23
2018-09-20T08:32:01.749Z,3.70
2018-09-20T08:34:27.870Z,3.80
2018-09-20T08:36:53.966Z,4.10
2018-09-20T08:39:20.077Z,4.77
2018-09-20T08:41:46.169Z,4.13
2018-09-20T08:44:12.265Z,4.53
2018-09-20T08:46:38.338Z,3.80
2018-09-20T08:49:04.445Z,4.70
2018-09-20T08:51:30.638Z,4.47
2018-09-20T08:53:56.733Z,4.10
2018-09-20T08:56:22.805Z,4.03
2018-09-20T08:58:49.729Z,4.57
2018-09-20T09:01:15.846Z,4.20
2018-09-20T09:03:41.961Z,4.07
2018-09-20T09:06:08.055Z,3.73
2018-09-20T09:08:34.145Z,3.83
2018-09-20T09:11:00.220Z,4.13
2018-09-20T09:13:26.307Z,4.73
2018-09-20T09:15:52.367Z,3.40
2018-09-20T09:18:18.485Z,4.70
2018-09-20T09:20:44.596Z,3.57
2018-09-20T09:23:10.695Z,4.30
2018-09-20T09:25:36.791Z,4.30
2018-09-20T09:28:02.920Z,4.67
2018-09-20T09:30:29.064Z,4.17
2018-09-20T09:32:55.147Z,4.00
2018-09-20T09:35:21.270Z,4.20
2018-09-20T09:37:47.358Z,3.80
2018-09-20T09:40:13.465Z,3.87
2018-09-20T09:42:39.573Z,3.70
2018-09-20T09:45:05.676Z,4.20
2018-09-20T09:47:31.745Z,4.07
2018-09-20T09:49:57.862Z,4.20
2018-09-20T09:52:23.942Z,4.30
2018-09-20T09:54:50.127Z,4.47
2018-09-20T09:57:16.121Z,3.80
2018-09-20T09:59:42.187Z,4.37
2018-09-20T10:02:08.282Z,4.20
2018-09-20T10:04:34.388Z,4.80
2018-09-20T10:07:00.501Z,3.80
2018-09-20T10:09:26.639Z,3.80
2018-09-20T10:11:52.714Z,4.50
2018-09-20T10:14:18.837Z,4.30
2018-09-20T10:16:44.928Z,3.83
2018-09-20T10:19:11.069Z,3.57
2018-09-20T10:21:37.139Z,3.57
2018-09-20T10:24:03.310Z,3.40
2018-09-20T10:26:29.384Z,4.20
2018-09-20T10:28:55.431Z,3.50
2018-09-20T10:31:21.541Z,3.73
2018-09-20T10:33:47.651Z,3.80
2018-09-20T10:36:13.759Z,3.60
2018-09-20T10:38:39.820Z,3.07
2018-09-20T10:41:05.926Z,3.60
2018-09-20T10:43:32.023Z,3.93
2018-09-20T10:45:58.091Z,3.60
2018-09-20T10:48:24.205Z,3.80
2018-09-20T10:50:50.810Z,3.67
2018-09-20T10:53:16.930Z,3.40
2018-09-20T10:55:43.056Z,3.23
2018-09-20T10:58:09.139Z,4.03
2018-09-20T11:00:35.210Z,4.00
2018-09-20T11:03:01.333Z,4.13
2018-09-20T11:05:27.443Z,4.23
2018-09-20T11:07:53.533Z,3.77
2018-09-20T11:10:19.664Z,4.30
2018-09-20T11:12:45.723Z,3.90
2018-09-20T11:15:11.823Z,3.60
2018-09-20T11:17:37.891Z,3.87
2018-09-20T11:20:04.055Z,3.90
2018-09-20T11:22:30.112Z,3.90
2018-09-20T11:24:56.163Z,3.73
2018-09-20T11:27:22.255Z,4.07
2018-09-20T11:29:48.342Z,3.43
2018-09-20T11:32:14.416Z,3.40
2018-09-20T11:34:40.520Z,3.37
2018-09-20T11:37:06.628Z,3.40
2018-09-20T11:39:32.731Z,3.47
2018-09-20T11:41:58.821Z,3.57
2018-09-20T11:44:25.141Z,2.83
2018-09-20T11:46:51.873Z,3.47
2018-09-20T11:49:18.240Z,3.83
2018-09-20T11:51:44.345Z,3.50
2018-09-20T11:54:10.444Z,4.20
2018-09-20T11:56:36.515Z,3.50
2018-09-20T11:59:02.594Z,3.50
2018-09-20T12:01:28.716Z,3.60
2018-09-20T12:03:54.895Z,3.40
2018-09-20T12:06:21.037Z,3.70
2018-09-20T12:08:47.175Z,3.97
2018-09-20T12:11:13.253Z,3.47
2018-09-20T12:13:39.359Z,3.40
2018-09-20T12:16:06.615Z,3.73
2018-09-20T12:18:32.719Z,3.50
2018-09-20T12:20:58.857Z,3.60
2018-09-20T12:23:24.957Z,3.47
2018-09-20T12:25:51.077Z,3.37
2018-09-20T12:28:17.181Z,3.53
2018-09-20T12:30:43.310Z,3.10
2018-09-20T12:33:09.403Z,3.20
2018-09-20T12:35:35.596Z,3.67
2018-09-20T12:38:01.627Z,3.80
2018-09-20T12:40:27.681Z,3.03
2018-09-20T12:42:53.836Z,3.47
2018-09-20T12:45:19.906Z,4.00
2018-09-20T12:47:46.020Z,3.53
2018-09-20T12:50:12.128Z,4.07
2018-09-20T12:52:38.206Z,4.40
2018-09-20T12:55:04.320Z,3.60
2018-09-20T12:57:30.427Z,3.80
2018-09-20T12:59:56.577Z,3.83
2018-09-20T13:02:22.671Z,4.07
2018-09-20T13:04:48.810Z,3.47
2018-09-20T13:07:14.903Z,3.37
2018-09-20T13:09:40.986Z,3.60
2018-09-20T13:12:07.093Z,4.20
2018-09-20T13:14:33.204Z,3.93
2018-09-20T13:16:59.246Z,4.40
2018-09-20T13:19:25.352Z,4.03
2018-09-20T13:21:51.436Z,3.73
2018-09-20T13:24:17.541Z,4.20
2018-09-20T13:26:43.618Z,3.57
2018-09-20T13:29:10.370Z,4.00
2018-09-20T13:31:36.466Z,3.80
2018-09-20T13:34:02.576Z,4.17
2018-09-20T13:36:28.644Z,3.87
2018-09-20T13:38:54.767Z,3.70
2018-09-20T13:41:20.872Z,3.60
2018-09-20T13:43:47.015Z,3.90
2018-09-20T13:46:13.125Z,3.73
2018-09-20T13:48:39.338Z,3.70
2018-09-20T13:51:05.473Z,3.77
2018-09-20T13:53:31.535Z,3.70
2018-09-20T13:55:57.673Z,4.10
2018-09-20T13:58:23.783Z,4.03
2018-09-20T14:00:49.899Z,4.00
2018-09-20T14:03:15.983Z,4.30
2018-09-20T14:05:42.076Z,4.27
2018-09-20T14:08:08.171Z,3.93
2018-09-20T14:10:34.275Z,3.40
2018-09-20T14:13:00.332Z,3.53
2018-09-20T14:15:26.550Z,3.63
2018-09-20T14:17:52.621Z,4.00
2018-09-20T14:20:18.711Z,3.90
2018-09-20T14:22:44.783Z,3.77
2018-09-20T14:25:10.857Z,4.00
2018-09-20T14:27:36.931Z,3.63
2018-09-20T14:30:03.069Z,3.63
2018-09-20T14:32:29.211Z,4.10
2018-09-20T14:34:55.307Z,3.33
2018-09-20T14:37:21.366Z,3.70
2018-09-20T14:39:47.451Z,3.87
2018-09-20T14:42:13.535Z,3.73
2018-09-20T14:44:39.627Z,3.70
2018-09-20T14:47:05.700Z,3.40
2018-09-20T14:49:31.962Z,3.53
2018-09-20T14:51:58.018Z,3.90
2018-09-20T14:54:24.133Z,3.80
2018-09-20T14:56:50.203Z,3.50
2018-09-20T14:59:16.323Z,3.43
2018-09-20T15:01:42.420Z,3.53
2018-09-20T15:04:08.500Z,3.20
2018-09-20T15:06:34.606Z,3.30
2018-09-20T15:09:00.704Z,3.63
2018-09-20T15:11:26.786Z,3.53
2018-09-20T15:13:52.873Z,3.20
2018-09-20T15:16:18.968Z,3.63
2018-09-20T15:18:45.082Z,3.67
2018-09-20T15:21:11.208Z,4.17
2018-09-20T15:23:37.286Z,4.30
2018-09-20T15:26:03.385Z,3.50
2018-09-20T15:28:29.442Z,4.33
2018-09-20T15:30:55.510Z,4.23
2018-09-20T15:33:21.615Z,5.07
2018-09-20T15:35:47.703Z,4.00
2018-09-20T15:38:13.777Z,4.43
2018-09-20T15:40:39.853Z,4.07
2018-09-20T15:43:05.951Z,4.43
2018-09-20T15:45:32.065Z,4.10
2018-09-20T15:47:58.199Z,4.03
2018-09-20T15:50:24.284Z,4.43
2018-09-20T15:52:50.633Z,4.90
2018-09-20T15:55:16.728Z,4.70
2018-09-20T15:57:43.609Z,4.80
2018-09-20T16:00:09.805Z,4.40
2018-09-20T16:02:35.935Z,5.13
2018-09-20T16:05:02.080Z,5.03
2018-09-20T16:07:28.187Z,4.10
2018-09-20T16:09:55.449Z,4.60
2018-09-20T16:12:21.537Z,4.83
2018-09-20T16:14:47.619Z,4.63
2018-09-20T16:17:13.769Z,4.73
2018-09-20T16:19:39.950Z,4.67
2018-09-20T16:22:06.182Z,4.67
2018-09-20T16:24:32.243Z,4.33
2018-09-20T16:26:58.387Z,3.93
2018-09-20T16:29:30.347Z,5.97
2018-09-20T16:32:07.946Z,5.00
2018-09-20T16:34:42.989Z,5.30
2018-09-20T16:37:14.619Z,4.37
2018-09-20T16:39:43.026Z,4.97
2018-09-20T16:42:10.443Z,5.00
2018-09-20T16:44:36.599Z,5.60
2018-09-20T16:47:04.162Z,5.23
2018-09-20T16:49:30.254Z,5.63
2018-09-20T16:51:56.338Z,9.77
2018-09-20T16:54:23.396Z,9.60
2018-09-20T16:56:51.607Z,20.17
2018-09-20T16:59:17.718Z,18.27
2018-09-20T17:01:43.833Z,15.93
2018-09-20T17:04:09.925Z,18.20
2018-09-20T17:06:36.046Z,18.93
2018-09-20T17:09:04.946Z,17.43
2018-09-20T17:11:33.928Z,13.40
2018-09-20T17:14:00.208Z,12.57
2018-09-20T17:16:26.351Z,10.60
2018-09-20T17:18:52.493Z,8.47
2018-09-20T17:21:18.640Z,7.90
2018-09-20T17:23:45.354Z,7.67
2018-09-20T17:26:12.616Z,7.23
2018-09-20T17:28:42.670Z,6.70
2018-09-20T17:31:08.754Z,6.33
2018-09-20T17:33:34.858Z,6.60
2018-09-20T17:36:01.213Z,6.87
2018-09-20T17:38:28.036Z,6.90
2018-09-20T17:41:00.907Z,7.20
2018-09-20T17:43:28.012Z,6.43
2018-09-20T17:45:54.126Z,6.60
2018-09-20T18:06:51.244Z,6.87
2018-09-20T18:09:21.026Z,7.33
2018-09-20T18:11:47.109Z,7.93
2018-09-20T18:14:13.324Z,8.60
2018-09-20T18:16:39.414Z,7.37
2018-09-20T18:19:06.094Z,7.30
2018-09-20T18:21:35.266Z,6.90
2018-09-20T18:24:07.042Z,8.23
2018-09-20T18:26:33.142Z,12.77
2018-09-20T18:28:59.230Z,12.10
2018-09-20T18:31:25.331Z,12.13
2018-09-20T18:33:51.448Z,8.50
2018-09-20T18:36:17.573Z,7.10
2018-09-20T18:38:49.564Z,7.30
2018-09-20T18:41:17.184Z,5.63
2018-09-20T18:43:43.272Z,5.30
2018-09-20T18:46:09.375Z,4.93
2018-09-20T18:48:39.365Z,4.57
2018-09-20T18:51:07.118Z,4.40
2018-09-20T18:53:33.295Z,4.23
2018-09-20T18:55:59.637Z,4.40
2018-09-20T18:58:25.824Z,3.50
2018-09-20T19:00:51.997Z,4.10
2018-09-20T19:03:19.193Z,4.30
2018-09-20T19:05:48.330Z,4.73
2018-09-20T19:08:14.438Z,4.27
2018-09-20T19:10:40.615Z,5.73
2018-09-20T19:13:06.752Z,5.30
2018-09-20T19:15:32.931Z,5.07
2018-09-20T19:18:05.648Z,5.13
2018-09-20T19:20:34.201Z,5.30
2018-09-20T19:23:00.426Z,4.93
2018-09-20T19:25:26.771Z,5.07
2018-09-20T19:27:52.929Z,5.03
2018-09-20T19:32:54.359Z,5.73
2018-09-20T19:35:24.906Z,5.07
2018-09-20T19:37:52.983Z,5.07
2018-09-20T19:41:10.254Z,5.67
2018-09-20T19:43:36.427Z,3.97
2018-09-20T19:46:02.597Z,3.80
2018-09-20T19:48:28.738Z,4.83
2018-09-20T19:50:54.863Z,5.10
2018-09-20T19:53:20.989Z,4.87
2018-09-20T19:55:47.115Z,4.77
2018-09-20T19:58:13.191Z,4.80
2018-09-20T20:00:39.410Z,4.80
2018-09-20T20:03:05.445Z,4.90
2018-09-20T20:05:31.978Z,4.70
2018-09-20T20:07:58.118Z,4.67
2018-09-20T20:10:24.248Z,4.90
2018-09-20T20:12:50.430Z,4.70
2018-09-20T20:15:16.521Z,4.93
2018-09-20T20:17:42.609Z,5.20
2018-09-20T20:20:08.682Z,4.50
2018-09-20T20:22:34.785Z,4.27
2018-09-20T20:25:00.884Z,4.73
2018-09-20T20:27:26.986Z,5.03
2018-09-20T20:29:53.101Z,4.80
2018-09-20T20:32:19.803Z,4.77
2018-09-20T20:34:45.901Z,4.37
2018-09-20T20:37:11.970Z,4.13
2018-09-20T20:39:38.149Z,4.20
2018-09-20T20:42:04.271Z,3.93
2018-09-20T20:44:30.388Z,4.33
2018-09-20T20:46:56.483Z,5.07
2018-09-20T20:49:22.821Z,4.20
2018-09-20T20:51:48.937Z,4.40
2018-09-20T20:54:15.061Z,4.90
2018-09-20T20:56:41.185Z,4.10
2018-09-20T20:59:07.291Z,3.97
2018-09-20T21:01:33.366Z,3.70
2018-09-20T21:03:59.464Z,4.57
2018-09-20T21:06:25.531Z,4.03
2018-09-20T21:08:52.536Z,4.00
2018-09-20T21:11:18.713Z,4.37
2018-09-20T21:13:44.889Z,4.20
2018-09-20T21:16:13.679Z,4.53
2018-09-20T21:18:39.784Z,3.83
2018-09-20T21:21:05.907Z,3.53
2018-09-20T21:23:31.981Z,3.70
2018-09-20T21:25:58.067Z,4.23
2018-09-20T21:28:24.175Z,3.47
2018-09-20T21:30:50.243Z,4.23
2018-09-20T21:33:16.396Z,3.70
2018-09-20T21:35:42.519Z,4.13
2018-09-20T21:38:08.637Z,4.20
2018-09-20T21:40:34.729Z,3.70
2018-09-20T21:43:00.811Z,3.70
2018-09-20T21:45:26.923Z,3.60
2018-09-20T21:47:53.043Z,4.27
2018-09-20T21:50:19.111Z,3.90
2018-09-20T21:52:45.191Z,4.17
2018-09-20T21:55:11.326Z,4.00
2018-09-20T21:57:37.631Z,3.80
2018-09-20T22:00:04.656Z,3.53
2018-09-20T22:02:30.725Z,4.10
2018-09-20T22:04:56.840Z,4.27
2018-09-20T22:07:22.900Z,4.00
2018-09-20T22:09:49.023Z,3.50
2018-09-20T22:12:15.116Z,4.07
2018-09-20T22:14:41.892Z,3.90
2018-09-20T22:17:08.045Z,3.70
2018-09-20T22:19:34.320Z,4.50
2018-09-20T22:22:00.419Z,3.60
2018-09-20T22:24:26.508Z,3.90
2018-09-20T22:26:52.588Z,4.07
2018-09-20T22:29:18.673Z,3.80
2018-09-20T22:31:51.652Z,3.47
2018-09-20T22:34:17.759Z,3.10
2018-09-20T22:36:43.841Z,3.90
2018-09-20T22:39:09.909Z,3.43
2018-09-20T22:41:36.022Z,4.10
2018-09-20T22:44:02.119Z,3.93
2018-09-20T22:46:28.244Z,3.70
2018-09-20T22:48:54.323Z,3.40
2018-09-20T22:51:20.458Z,3.57
2018-09-20T22:53:46.523Z,3.90
2018-09-20T22:56:12.633Z,3.83
2018-09-20T22:58:38.762Z,3.73
2018-09-20T23:01:04.893Z,4.10
2018-09-20T23:03:31.015Z,3.87
2018-09-20T23:05:57.168Z,3.60
2018-09-20T23:08:23.305Z,3.73
2018-09-20T23:10:49.402Z,4.10
2018-09-20T23:13:15.490Z,3.97
2018-09-20T23:15:41.590Z,3.13
2018-09-20T23:18:07.688Z,3.90
2018-09-20T23:20:33.804Z,3.50
2018-09-20T23:22:59.877Z,4.60
2018-09-20T23:25:27.572Z,4.33
2018-09-20T23:27:53.658Z,3.87
2018-09-20T23:30:19.755Z,3.93
2018-09-20T23:32:45.838Z,4.10
2018-09-20T23:35:11.930Z,4.30
2018-09-20T23:37:37.990Z,3.73
2018-09-20T23:40:04.702Z,4.77
2018-09-20T23:42:30.802Z,3.90
2018-09-20T23:44:56.879Z,3.90
2018-09-20T23:47:22.978Z,3.67
2018-09-20T23:49:49.072Z,3.47
2018-09-20T23:52:15.170Z,3.37
2018-09-20T23:54:41.916Z,4.17
2018-09-20T23:57:08.034Z,3.80
2018-09-20T23:59:34.154Z,3.70
